• Join FlightAware (Why Join?)
  • Login
  • US Flag 
12:44AM EST


 

Airport Tracker/Info


-or-


 

Live Flight TrackerFlight Track Log ✈ ASQ4233 ✈ 06-May-2013 ✈ KIAH - KBHM

Flight Track Log - Related Links

Times and Time Zones

All times are in EDT time to prevent confusion due to time zone crossing. See the ASQ4233 flight status page for this flight to view local times or setup timezone preferences in your user account.

Time Position Orientation Groundspeed Altitude Reporting Facility
EDT Latitude Longitude Course Direction KTS MPH feet Rate Location/Type
07:08PM 29.9739 -95.2939 90° East 166 191 1,100  Level Houston Center
07:09PM 29.9108 -95.2244 136° Southeast 234 269 4,200 1,920 Climbing Houston Center
07:10PM 29.9164 -95.1736 83° East 244 281 5,300 1,860 Climbing Houston Center
07:10PM 29.9178 -95.1417 87° East 268 308 6,100 2,160 Climbing Houston Center
07:11PM 29.9834 -94.8096 90° East  Level FlightAware Approximate
07:12PM 29.9833 -94.6787 90° East  Level FlightAware Approximate
07:12PM 29.9333 -94.9939 83° East 283 326 9,800  Level Houston Center
07:13PM 29.9834 -94.5478 90° East  Level FlightAware Approximate
07:13PM 29.9433 -94.8878 84° East 327 376 10,600  Level Houston Center
07:15PM 29.9834 -94.6924 90° East  Level FlightAware Approximate
07:15PM 29.9658 -94.6453 90° East 386 444 13,000  Level Houston Center
07:16PM 29.9769 -94.5206 84° East 389 448 14,500 1,440 Climbing Houston Center
07:17PM 29.9881 -94.3922 84° East 392 451 16,000 1,320 Climbing Houston Center
07:19PM 30.0007 -94.2135 77° East  Level FlightAware Approximate
07:19PM 30.0197 -94.1156 77° East 403 464 18,600  Level Houston Center
07:20PM 30.0369 -93.9844 81° East 413 475 19,600 900 Climbing Houston Center
07:21PM 30.0525 -93.8503 82° East 423 487 20,500 900 Climbing Houston Center
07:22PM 30.0689 -93.7153 82° East 428 493 21,500 1,020 Climbing Houston Center
07:24PM 30.0775 -93.5469 82° East  Level FlightAware Approximate
07:24PM 30.1044 -93.4133 82° East 439 505 23,700  Level Houston Center
07:26PM 30.1182 -93.2516 83° East  Level FlightAware Approximate
07:26PM 30.1361 -93.1406 83° East 433 498 26,300  Level Houston Center
07:27PM 30.1869 -93.0211 58° Northeast 419 482 27,500 1,080 Climbing Houston Center
07:28PM 30.1765 -93.0019 58° Northeast  Level FlightAware Approximate
07:28PM 30.2475 -92.9094 58° Northeast 413 475 28,600  Level Houston Center
07:29PM 30.3089 -92.7961 58° Northeast 416 479 29,800 1,260 Climbing Houston Center
07:30PM 30.3836 -92.6594 58° Northeast 418 481 31,200 1,140 Climbing Houston Center
07:31PM 30.4461 -92.5447 58° Northeast 423 487 32,200 720 Climbing Houston Center
07:32PM 30.5075 -92.4333 57° Northeast 430 495 32,800 360 Climbing Houston Center
07:34PM 30.5753 -92.3056 58° Northeast 458 527 33,000 60 Climbing Houston Center
07:36PM 30.7294 -92.0203 58° Northeast 476 548 33,000  Level Houston Center
07:37PM 30.7989 -91.8878 59° Northeast 480 552 33,100 600 Climbing Houston Center
07:38PM 30.8703 -91.7575 57° Northeast 481 554 34,300 900 Climbing Houston Center
07:39PM 30.9381 -91.6289 58° Northeast 472 543 35,000 300 Climbing Houston Center
07:40PM 31.0064 -91.5003 58° Northeast 470 541 35,000  Level Houston Center
07:42PM 31.1683 -91.1803 59° Northeast 493 567 35,000  Level Memphis Center
07:44PM 31.2908 -90.9561 57° Northeast 459 528 35,000 -60 Level Houston Center
07:45PM 31.3569 -90.8281 59° Northeast 460 529 34,900  Descending Houston Center
07:46PM 31.4231 -90.7003 59° Northeast 460 529 35,000  Climbing Houston Center
07:47PM 31.4889 -90.5719 59° Northeast 458 527 34,900  Descending Houston Center
07:50PM 31.5639 -90.4051 62° Northeast  Level FlightAware Approximate
07:50PM 31.7008 -90.1603 62° Northeast 458 527 35,000  Level Houston Center
07:51PM 31.7739 -90.0203 58° Northeast 454 522 35,000  Level Memphis Center
07:52PM 31.8381 -89.8903 60° Northeast 454 522 35,000  Level Memphis Center
07:55PM 32.0322 -89.5022 59° Northeast 454 522 35,000  Level Memphis Center
07:56PM 32.0981 -89.3717 59° Northeast 454 522 35,000 -240 Level Memphis Center
07:57PM 32.1639 -89.2408 59° Northeast 454 522 34,600 -720 Descending Memphis Center
07:58PM 32.2294 -89.1122 59° Northeast 454 522 33,600 -960 Descending Memphis Center
07:59PM 32.2867 -88.9936 60° Northeast 460 529 32,700 -720 Descending Memphis Center
08:00PM 32.3497 -88.8694 59° Northeast 449 517 32,200 -360 Descending Memphis Center
08:01PM 32.4194 -88.7503 55° Northeast 449 517 32,000 -120 Descending Memphis Center
08:02PM 32.4950 -88.6406 51° Northeast 436 502 32,000 -600 Level Memphis Center
08:03PM 32.5728 -88.5281 51° Northeast 431 496 30,900 -2,100 Descending Memphis Center
08:04PM 32.6483 -88.4181 51° Northeast 426 490 27,900 -2,640 Descending Memphis Center
08:05PM 32.7258 -88.3053 51° Northeast 432 497 25,700 -2,040 Descending Memphis Center
08:06PM 32.8056 -88.1947 49° Northeast 432 497 23,900 -2,160 Descending Memphis Center
08:08PM 32.9594 -87.9628 52° Northeast 444 511 19,300 -2,340 Descending Atlanta Center
08:10PM 33.0471 -87.8047 51° Northeast  Level FlightAware Approximate
08:10PM 33.0797 -87.7847 51° Northeast 376 433 14,500  Level Atlanta Center
08:11PM 33.1300 -87.7125 50° Northeast 314 361 13,000 -1,440 Descending Atlanta Center
08:12PM 33.1847 -87.6253 53° Northeast 305 351 11,700 -900 Descending Atlanta Center
08:13PM 33.2328 -87.5553 51° Northeast 282 325 11,100 -1,080 Descending Atlanta Center
08:15PM 33.3203 -87.4113 51° Northeast  Level FlightAware Approximate
08:15PM 33.2917 -87.3864 51° Northeast 267 307 8,500  Level Atlanta Center
08:16PM 33.3189 -87.3028 69° East 267 307 7,500 -1,080 Descending Atlanta Center
08:17PM 33.3461 -87.2192 69° East 273 314 6,400 -1,140 Descending Atlanta Center
08:18PM 33.3689 -87.1431 70° East 261 300 5,300 -900 Descending Atlanta Center
08:19PM 33.3936 -87.0717 67° East 244 281 4,600 -660 Descending Atlanta Center
08:20PM 33.4206 -87.0031 65° Northeast 234 269 4,000 -600 Descending Atlanta Center